This is the latest recevied weather packets stored in our database for station/object OE-11138. If no packets are shown the sender has not sent any weather packets the latest 10 day(s).
| Time | Temp. | Humidity | Pressure | Rain* | Wind** | Luminosity | Snow |
|---|---|---|---|---|---|---|---|
| 1787808324 | 13.33° C | 50% | 718.3 hPa | 0 mm | - | 24 W/m² | - |
| 1787807497 | 12.22° C | 68% | 717.9 hPa | 0 mm | - | 18 W/m² | - |
| 1787807124 | 12.78° C | 64% | 718.1 hPa | 0 mm | - | 12 W/m² | - |
| 1787806524 | 12.78° C | 63% | 718 hPa | 0 mm | - | 6 W/m² | - |
| 1787805696 | 13.33° C | 54% | 718.2 hPa | 0 mm | - | 6 W/m² | - |
| 1787805324 | 14.44° C | 47% | 718.2 hPa | 0 mm | - | 0 W/m² | - |
| 1787804724 | 13.33° C | 55% | 717.9 hPa | 0 mm | - | 0 W/m² | - |
| 1787803897 | 12.78° C | 54% | 717.7 hPa | 0 mm | - | 0 W/m² | - |
| 1787803524 | 12.22° C | 63% | 717.6 hPa | 0 mm | - | 0 W/m² | - |
| 1787802924 | 12.22° C | 70% | 717.5 hPa | 0 mm | - | 0 W/m² | - |
| 1787802324 | 11.67° C | 72% | 717.4 hPa | 0 mm | - | 0 W/m² | - |
| 1787801724 | 11.11° C | 80% | 717.4 hPa | 0 mm | - | 0 W/m² | - |
| 1787801124 | 10.56° C | 86% | 717.1 hPa | 0 mm | - | 0 W/m² | - |
| 1787800297 | 11.11° C | 85% | 717.1 hPa | 0 mm | - | 0 W/m² | - |
| 1787799924 | 11.11° C | 83% | 717.1 hPa | 0 mm | - | 0 W/m² | - |
| 1787799324 | 11.67° C | 76% | 717.2 hPa | 0 mm | - | 0 W/m² | - |
| 1787798496 | 11.11° C | 85% | 717.1 hPa | 0 mm | - | 0 W/m² | - |
| 1787798124 | 11.67° C | 72% | 717.3 hPa | 0 mm | - | 0 W/m² | - |
| 1787797524 | 11.11° C | 81% | 717.1 hPa | 0 mm | - | 0 W/m² | - |
| 1787796697 | 11.11° C | 83% | 716.9 hPa | 0 mm | - | 0 W/m² | - |
| 1787796323 | 10.56° C | 90% | 716.8 hPa | 0 mm | - | 0 W/m² | - |
| 1787795724 | 10.56° C | 88% | 716.9 hPa | 0 mm | - | 0 W/m² | - |
| 1787794897 | 10.56° C | 92% | 716.7 hPa | 0 mm | - | 0 W/m² | - |
| 1787794524 | 10.56° C | 89% | 717 hPa | 0 mm | - | 0 W/m² | - |
| 1787793924 | 11.11° C | 90% | 717 hPa | 0 mm | - | 0 W/m² | - |
* Rain latest hour (hover to see other rain measurements)
** Current wind speed in m/s (hover to see current wind gust speed)